Terminal Aerodrome Forecast
Issued by NWS Mt. Holly, NJ

Home | Current Version | Previous Version | Text Only | Print | Product List | Glossary On
Versions: 1 2 3 4 5 6 7 8 9 10 11 12 13 14 15 16 17 18 19 20 21 22
000
FTUS41 KPHI 100721 AAA
TAFACY
TAF AMD
KACY 100721Z 1007/1106 27010KT P6SM SCT045 BKN200
      TEMPO 1007/1009 6SM -SN BKN045
     FM101700 29012G19KT P6SM BKN050
     FM102100 30008KT P6SM SCT050=

USA.gov is the U.S. government's official web portal to all federal, state and local government web resources and services.